createdAt,value
2023-02-09T00:00:25.618Z,-6.42
2023-02-09T00:01:47.450Z,-6.42
2023-02-09T00:02:49.426Z,-6.41
2023-02-09T00:03:52.567Z,-6.41
2023-02-09T00:04:54.861Z,-6.42
2023-02-09T00:06:00.391Z,-6.41
2023-02-09T00:07:02.922Z,-6.40
2023-02-09T00:08:04.786Z,-6.40
2023-02-09T00:09:06.636Z,-6.40
2023-02-09T00:10:08.899Z,-6.39
2023-02-09T00:11:20.864Z,-6.38
2023-02-09T00:12:41.696Z,-6.38
2023-02-09T00:13:44.553Z,-6.38
2023-02-09T00:14:46.359Z,-6.38
2023-02-09T00:15:55.341Z,-6.38
2023-02-09T00:16:57.154Z,-6.37
2023-02-09T00:17:59.011Z,-6.35
2023-02-09T00:19:01.056Z,-6.34
2023-02-09T00:20:08.149Z,-6.34
2023-02-09T00:21:11.918Z,-6.35
2023-02-09T00:22:15.020Z,-6.36
2023-02-09T00:23:16.868Z,-6.38
2023-02-09T00:24:19.042Z,-6.39
2023-02-09T00:25:20.867Z,-6.40
2023-02-09T00:26:22.856Z,-6.41
2023-02-09T00:27:26.426Z,-6.43
2023-02-09T00:28:28.583Z,-6.45
2023-02-09T00:29:30.592Z,-6.45
2023-02-09T00:30:32.556Z,-6.46
2023-02-09T00:31:35.898Z,-6.47
2023-02-09T00:32:39.169Z,-6.48
2023-02-09T00:33:41.484Z,-6.49
2023-02-09T00:34:43.844Z,-6.48
2023-02-09T00:35:45.852Z,-6.49
2023-02-09T00:36:47.715Z,-6.50
2023-02-09T00:37:49.634Z,-6.51
2023-02-09T00:38:51.485Z,-6.52
2023-02-09T00:39:53.372Z,-6.53
2023-02-09T00:40:55.203Z,-6.55
2023-02-09T00:42:06.464Z,-6.56
2023-02-09T00:43:09.826Z,-6.57
2023-02-09T00:44:12.608Z,-6.58
2023-02-09T00:45:14.663Z,-6.59
2023-02-09T00:46:16.460Z,-6.60
2023-02-09T00:47:18.927Z,-6.61
2023-02-09T00:48:21.589Z,-6.62
2023-02-09T00:49:24.033Z,-6.65
2023-02-09T00:50:28.319Z,-6.67
2023-02-09T00:51:30.411Z,-6.69
2023-02-09T00:52:33.404Z,-6.71
2023-02-09T00:53:35.373Z,-6.71
2023-02-09T00:54:37.768Z,-6.71
2023-02-09T00:55:39.735Z,-6.71
2023-02-09T00:56:42.205Z,-6.72
2023-02-09T00:57:44.481Z,-6.74
2023-02-09T00:58:46.498Z,-6.76
2023-02-09T00:59:48.361Z,-6.77
2023-02-09T01:00:50.317Z,-6.79
2023-02-09T01:01:52.451Z,-6.81
2023-02-09T01:02:56.996Z,-6.82
2023-02-09T01:03:58.814Z,-6.84
2023-02-09T01:05:01.218Z,-6.85
2023-02-09T01:06:03.360Z,-6.88
2023-02-09T01:07:05.162Z,-6.92
2023-02-09T01:08:07.437Z,-6.95
2023-02-09T01:09:09.582Z,-6.97
2023-02-09T01:10:13.221Z,-6.97
2023-02-09T01:11:16.490Z,-6.96
2023-02-09T01:12:18.820Z,-6.97
2023-02-09T01:13:20.778Z,-6.98
2023-02-09T01:14:22.633Z,-7.00
2023-02-09T01:15:24.564Z,-7.01
2023-02-09T01:16:31.694Z,-7.00
2023-02-09T01:17:34.072Z,-6.99
2023-02-09T01:18:36.774Z,-7.00
2023-02-09T01:19:38.617Z,-7.01
2023-02-09T01:20:42.092Z,-7.03
2023-02-09T01:21:47.685Z,-7.06
2023-02-09T01:22:50.090Z,-7.08
2023-02-09T01:23:52.154Z,-7.11
2023-02-09T01:24:54.016Z,-7.14
2023-02-09T01:26:08.112Z,-7.16
2023-02-09T01:27:09.923Z,-7.17
2023-02-09T01:28:12.218Z,-7.19
2023-02-09T01:29:17.708Z,-7.20
2023-02-09T01:30:19.732Z,-7.21
2023-02-09T01:31:26.392Z,-7.21
2023-02-09T01:32:28.636Z,-7.22
2023-02-09T01:33:31.724Z,-7.23
2023-02-09T01:34:33.708Z,-7.25
2023-02-09T01:35:35.647Z,-7.25
2023-02-09T01:36:37.442Z,-7.26
2023-02-09T01:37:39.563Z,-7.28
2023-02-09T01:38:43.203Z,-7.30
2023-02-09T01:39:45.118Z,-7.34
2023-02-09T01:40:49.301Z,-7.35
2023-02-09T01:41:51.337Z,-7.38
2023-02-09T01:42:53.302Z,-7.40
2023-02-09T01:44:07.965Z,-7.42
2023-02-09T01:45:43.950Z,-7.44
2023-02-09T01:46:45.805Z,-7.47
2023-02-09T01:47:56.340Z,-7.47
2023-02-09T01:49:27.937Z,-7.48
2023-02-09T01:50:36.447Z,-7.48
2023-02-09T01:51:55.665Z,-7.50
2023-02-09T01:52:57.937Z,-7.50
2023-02-09T01:54:04.920Z,-7.50
2023-02-09T01:55:17.532Z,-7.49
2023-02-09T01:56:28.681Z,-7.49
2023-02-09T01:57:48.195Z,-7.50
2023-02-09T01:58:50.640Z,-7.52
2023-02-09T02:00:00.738Z,-7.55
2023-02-09T02:01:04.181Z,-7.56
2023-02-09T02:02:08.759Z,-7.59
2023-02-09T02:03:18.268Z,-7.57
2023-02-09T02:04:22.676Z,-7.57
2023-02-09T02:05:26.136Z,-7.56
2023-02-09T02:06:28.702Z,-7.55
2023-02-09T02:07:44.145Z,-7.54
2023-02-09T02:08:56.636Z,-7.55
2023-02-09T02:09:58.512Z,-7.56
2023-02-09T02:11:01.594Z,-7.56
2023-02-09T02:12:05.328Z,-7.57
2023-02-09T02:13:07.196Z,-7.57
2023-02-09T02:14:35.599Z,-7.59
2023-02-09T02:16:19.690Z,-7.61
2023-02-09T02:17:43.783Z,-7.63
2023-02-09T02:19:23.905Z,-7.66
2023-02-09T02:20:57.369Z,-7.68
2023-02-09T02:22:46.901Z,-7.71
2023-02-09T02:24:21.881Z,-7.73
2023-02-09T02:25:23.625Z,-7.76
2023-02-09T02:26:45.797Z,-7.77
2023-02-09T02:27:56.517Z,-7.80
2023-02-09T02:29:04.666Z,-7.83
2023-02-09T02:30:20.342Z,-7.85
2023-02-09T02:31:36.436Z,-7.88
2023-02-09T02:33:07.294Z,-7.92
2023-02-09T02:34:26.800Z,-7.96
2023-02-09T02:35:54.777Z,-7.98
2023-02-09T02:37:16.562Z,-7.98
2023-02-09T02:38:24.597Z,-7.99
2023-02-09T02:39:56.989Z,-7.98
2023-02-09T02:41:20.682Z,-7.97
2023-02-09T02:42:51.671Z,-7.98
2023-02-09T02:44:12.641Z,-7.99
2023-02-09T02:45:34.205Z,-7.99
2023-02-09T02:46:45.352Z,-7.99
2023-02-09T02:47:57.498Z,-7.99
2023-02-09T02:49:10.689Z,-7.99
2023-02-09T02:50:22.401Z,-7.99
2023-02-09T02:51:53.728Z,-8.00
2023-02-09T02:53:02.929Z,-8.00
2023-02-09T02:54:11.546Z,-8.02
2023-02-09T02:55:22.116Z,-8.03
2023-02-09T02:56:36.665Z,-8.05
2023-02-09T02:57:45.682Z,-8.06
2023-02-09T02:58:51.121Z,-8.06
2023-02-09T03:00:03.184Z,-8.05
2023-02-09T03:01:13.181Z,-8.04
2023-02-09T03:02:26.356Z,-8.05
2023-02-09T03:03:37.611Z,-8.04
2023-02-09T03:04:41.444Z,-8.06
2023-02-09T03:05:45.497Z,-8.05
2023-02-09T03:06:47.716Z,-8.07
2023-02-09T03:07:50.029Z,-8.08
2023-02-09T03:08:57.793Z,-8.10
2023-02-09T03:10:01.016Z,-8.10
2023-02-09T03:11:05.111Z,-8.09
2023-02-09T03:12:25.766Z,-8.10
2023-02-09T03:13:54.719Z,-8.10
2023-02-09T03:15:15.801Z,-8.10
2023-02-09T03:16:29.437Z,-8.07
2023-02-09T03:17:54.646Z,-8.06
2023-02-09T03:19:06.890Z,-8.05
2023-02-09T03:20:28.303Z,-8.08
2023-02-09T03:22:02.916Z,-8.10
2023-02-09T03:23:13.335Z,-8.12
2023-02-09T03:24:29.837Z,-8.12
2023-02-09T03:25:38.488Z,-8.12
2023-02-09T03:26:55.507Z,-8.12
2023-02-09T03:28:22.741Z,-8.11
2023-02-09T03:29:28.788Z,-8.10
2023-02-09T03:30:33.802Z,-8.11
2023-02-09T03:31:37.485Z,-8.10
2023-02-09T03:32:42.187Z,-8.08
2023-02-09T03:33:44.541Z,-8.07
2023-02-09T03:34:46.522Z,-8.07
2023-02-09T03:35:56.433Z,-8.09
2023-02-09T03:36:58.664Z,-8.11
2023-02-09T03:38:01.644Z,-8.12
2023-02-09T03:39:04.007Z,-8.13
2023-02-09T03:40:06.713Z,-8.14
2023-02-09T03:41:08.851Z,-8.14
2023-02-09T03:42:10.954Z,-8.14
2023-02-09T03:43:13.797Z,-8.14
2023-02-09T03:44:28.369Z,-8.14
2023-02-09T03:45:30.369Z,-8.15
2023-02-09T03:46:33.686Z,-8.15
2023-02-09T03:47:35.562Z,-8.16
2023-02-09T03:48:38.484Z,-8.16
2023-02-09T03:49:42.520Z,-8.17
2023-02-09T03:50:44.863Z,-8.18
2023-02-09T03:51:46.996Z,-8.18
2023-02-09T03:52:48.819Z,-8.19
2023-02-09T03:53:50.762Z,-8.19
2023-02-09T03:54:52.645Z,-8.20
2023-02-09T03:55:54.554Z,-8.22
2023-02-09T03:56:57.862Z,-8.24
2023-02-09T03:58:00.561Z,-8.25
2023-02-09T03:59:02.553Z,-8.26
2023-02-09T04:00:05.296Z,-8.28
2023-02-09T04:01:13.710Z,-8.27
2023-02-09T04:02:16.009Z,-8.27
2023-02-09T04:03:17.928Z,-8.29
2023-02-09T04:04:20.922Z,-8.28
2023-02-09T04:05:23.104Z,-8.28
2023-02-09T04:06:25.363Z,-8.28
2023-02-09T04:07:27.828Z,-8.28
2023-02-09T04:08:30.139Z,-8.27
2023-02-09T04:09:32.125Z,-8.26
2023-02-09T04:10:33.971Z,-8.25
2023-02-09T04:11:35.738Z,-8.26
2023-02-09T04:12:37.618Z,-8.27
2023-02-09T04:13:39.457Z,-8.27
2023-02-09T04:14:41.248Z,-8.27
2023-02-09T04:15:43.272Z,-8.28
2023-02-09T04:16:45.300Z,-8.29
2023-02-09T04:17:49.396Z,-8.30
2023-02-09T04:18:53.020Z,-8.30
2023-02-09T04:19:54.808Z,-8.31
2023-02-09T04:20:56.742Z,-8.32
2023-02-09T04:21:59.083Z,-8.35
2023-02-09T04:23:03.719Z,-8.35
2023-02-09T04:24:06.423Z,-8.37
2023-02-09T04:25:08.418Z,-8.38
2023-02-09T04:26:10.312Z,-8.41
2023-02-09T04:27:12.179Z,-8.42
2023-02-09T04:28:14.037Z,-8.44
2023-02-09T04:29:16.255Z,-8.47
2023-02-09T04:30:18.442Z,-8.50
2023-02-09T04:31:20.704Z,-8.51
2023-02-09T04:32:22.832Z,-8.54
2023-02-09T04:33:25.637Z,-8.56
2023-02-09T04:34:27.816Z,-8.57
2023-02-09T04:35:29.712Z,-8.56
2023-02-09T04:36:31.667Z,-8.57
2023-02-09T04:37:33.540Z,-8.58
2023-02-09T04:38:36.629Z,-8.59
2023-02-09T04:39:38.442Z,-8.61
2023-02-09T04:40:40.419Z,-8.62
2023-02-09T04:41:42.579Z,-8.64
2023-02-09T04:42:46.141Z,-8.67
2023-02-09T04:43:48.595Z,-8.68
2023-02-09T04:44:50.667Z,-8.69
2023-02-09T04:45:52.995Z,-8.70
2023-02-09T04:46:55.219Z,-8.71
2023-02-09T04:47:57.158Z,-8.71
2023-02-09T04:48:59.040Z,-8.71
2023-02-09T04:50:01.018Z,-8.71
2023-02-09T04:51:02.888Z,-8.71
2023-02-09T04:52:04.889Z,-8.71
2023-02-09T04:53:06.952Z,-8.70
2023-02-09T04:54:08.883Z,-8.71
2023-02-09T04:55:10.706Z,-8.70
2023-02-09T04:56:15.557Z,-8.71
2023-02-09T04:57:36.358Z,-8.70
2023-02-09T04:58:57.034Z,-8.71
2023-02-09T04:59:59.110Z,-8.71
2023-02-09T05:01:03.185Z,-8.71
2023-02-09T05:02:05.404Z,-8.71
2023-02-09T05:03:08.110Z,-8.72
2023-02-09T05:04:10.180Z,-8.74
2023-02-09T05:05:12.239Z,-8.74
2023-02-09T05:06:14.614Z,-8.75
2023-02-09T05:07:16.879Z,-8.75
2023-02-09T05:08:18.848Z,-8.74
2023-02-09T05:09:21.011Z,-8.74
2023-02-09T05:10:23.241Z,-8.74
2023-02-09T05:11:25.735Z,-8.73
2023-02-09T05:12:27.738Z,-8.74
2023-02-09T05:13:29.835Z,-8.73
2023-02-09T05:14:31.757Z,-8.73
2023-02-09T05:15:33.624Z,-8.74
2023-02-09T05:16:37.049Z,-8.75
2023-02-09T05:17:40.320Z,-8.75
2023-02-09T05:18:42.153Z,-8.75
2023-02-09T05:19:44.037Z,-8.76
2023-02-09T05:20:47.973Z,-8.76
2023-02-09T05:21:49.865Z,-8.76
2023-02-09T05:22:51.680Z,-8.77
2023-02-09T05:23:53.667Z,-8.78
2023-02-09T05:24:55.611Z,-8.77
2023-02-09T05:25:57.861Z,-8.77
2023-02-09T05:26:59.879Z,-8.76
2023-02-09T05:28:02.220Z,-8.76
2023-02-09T05:29:04.704Z,-8.76
2023-02-09T05:30:07.113Z,-8.74
2023-02-09T05:31:09.116Z,-8.74
2023-02-09T05:32:11.268Z,-8.75
2023-02-09T05:33:13.271Z,-8.74
2023-02-09T05:34:15.042Z,-8.73
2023-02-09T05:35:17.410Z,-8.73
2023-02-09T05:36:19.182Z,-8.74
2023-02-09T05:37:21.268Z,-8.72
2023-02-09T05:38:23.763Z,-8.72
2023-02-09T05:39:25.505Z,-8.71
2023-02-09T05:40:27.469Z,-8.71
2023-02-09T05:41:47.917Z,-8.70
2023-02-09T05:42:49.882Z,-8.69
2023-02-09T05:43:51.704Z,-8.67
2023-02-09T05:44:53.596Z,-8.67
2023-02-09T05:45:55.669Z,-8.67
2023-02-09T05:46:57.642Z,-8.66
2023-02-09T05:47:59.524Z,-8.67
2023-02-09T05:49:01.527Z,-8.67
2023-02-09T05:50:04.355Z,-8.69
2023-02-09T05:51:06.665Z,-8.70
2023-02-09T05:52:09.566Z,-8.70
2023-02-09T05:53:12.901Z,-8.70
2023-02-09T05:54:15.194Z,-8.71
2023-02-09T05:55:17.573Z,-8.70
2023-02-09T05:56:20.423Z,-8.71
2023-02-09T05:57:22.322Z,-8.71
2023-02-09T05:58:24.250Z,-8.70
2023-02-09T05:59:26.249Z,-8.69
2023-02-09T06:00:29.909Z,-8.68
2023-02-09T06:01:31.980Z,-8.68
2023-02-09T06:02:33.771Z,-8.67
2023-02-09T06:03:35.671Z,-8.66
2023-02-09T06:04:37.948Z,-8.67
2023-02-09T06:05:39.935Z,-8.67
2023-02-09T06:06:42.475Z,-8.68
2023-02-09T06:07:44.316Z,-8.68
2023-02-09T06:08:46.176Z,-8.68
2023-02-09T06:09:47.993Z,-8.68
2023-02-09T06:10:49.766Z,-8.70
2023-02-09T06:11:52.798Z,-8.72
2023-02-09T06:12:54.568Z,-8.73
2023-02-09T06:13:56.340Z,-8.76
2023-02-09T06:14:58.215Z,-8.78
2023-02-09T06:16:00.282Z,-8.79
2023-02-09T06:17:02.518Z,-8.79
2023-02-09T06:18:04.643Z,-8.78
2023-02-09T06:19:07.306Z,-8.80
2023-02-09T06:20:09.940Z,-8.80
2023-02-09T06:21:12.226Z,-8.82
2023-02-09T06:22:14.124Z,-8.82
2023-02-09T06:23:16.010Z,-8.83
2023-02-09T06:24:18.299Z,-8.84
2023-02-09T06:25:20.366Z,-8.85
2023-02-09T06:26:22.299Z,-8.86
2023-02-09T06:27:24.185Z,-8.88
2023-02-09T06:28:26.167Z,-8.90
2023-02-09T06:29:28.057Z,-8.93
2023-02-09T06:30:30.084Z,-8.94
2023-02-09T06:31:33.608Z,-8.94
2023-02-09T06:32:35.945Z,-8.94
2023-02-09T06:33:39.428Z,-8.95
2023-02-09T06:34:41.364Z,-8.93
2023-02-09T06:35:43.690Z,-8.93
2023-02-09T06:36:45.615Z,-8.93
2023-02-09T06:37:47.490Z,-8.93
2023-02-09T06:38:49.434Z,-8.91
2023-02-09T06:39:51.245Z,-8.87
2023-02-09T06:40:53.152Z,-8.83
2023-02-09T06:41:55.404Z,-8.81
2023-02-09T06:42:57.536Z,-8.78
2023-02-09T06:43:59.475Z,-8.76
2023-02-09T06:45:01.695Z,-8.74
2023-02-09T06:46:12.588Z,-8.76
2023-02-09T06:47:14.423Z,-8.77
2023-02-09T06:48:16.267Z,-8.77
2023-02-09T06:49:19.011Z,-8.74
2023-02-09T06:50:21.470Z,-8.71
2023-02-09T06:51:23.546Z,-8.69
2023-02-09T06:52:25.565Z,-8.65
2023-02-09T06:53:27.577Z,-8.63
2023-02-09T06:54:29.487Z,-8.61
2023-02-09T06:55:32.268Z,-8.60
2023-02-09T06:56:34.211Z,-8.59
2023-02-09T06:57:36.405Z,-8.59
2023-02-09T06:58:39.977Z,-8.59
2023-02-09T06:59:42.017Z,-8.59
2023-02-09T07:00:44.150Z,-8.58
2023-02-09T07:01:46.219Z,-8.59
2023-02-09T07:02:48.971Z,-8.59
2023-02-09T07:03:51.089Z,-8.60
2023-02-09T07:04:52.975Z,-8.58
2023-02-09T07:05:54.818Z,-8.56
2023-02-09T07:06:56.624Z,-8.55
2023-02-09T07:07:58.566Z,-8.52
2023-02-09T07:09:00.811Z,-8.49
2023-02-09T07:10:05.276Z,-8.44
2023-02-09T07:11:11.215Z,-8.39
2023-02-09T07:12:13.125Z,-8.36
2023-02-09T07:13:15.102Z,-8.29
2023-02-09T07:14:17.130Z,-8.24
2023-02-09T07:15:19.227Z,-8.19
2023-02-09T07:16:21.461Z,-8.14
2023-02-09T07:17:23.477Z,-8.09
2023-02-09T07:18:26.552Z,-8.05
2023-02-09T07:19:28.524Z,-8.01
2023-02-09T07:20:30.358Z,-7.95
2023-02-09T07:21:32.292Z,-7.90
2023-02-09T07:22:34.884Z,-7.86
2023-02-09T07:23:38.023Z,-7.82
2023-02-09T07:24:40.140Z,-7.77
2023-02-09T07:25:41.918Z,-7.73
2023-02-09T07:26:43.713Z,-7.68
2023-02-09T07:27:45.569Z,-7.63
2023-02-09T07:28:47.694Z,-7.58
2023-02-09T07:29:49.456Z,-7.53
2023-02-09T07:30:53.249Z,-7.47
2023-02-09T07:31:55.217Z,-7.42
2023-02-09T07:32:57.117Z,-7.36
2023-02-09T07:33:59.068Z,-7.30
2023-02-09T07:35:00.858Z,-7.25
2023-02-09T07:36:06.296Z,-7.20
2023-02-09T07:37:08.694Z,-7.12
2023-02-09T07:38:11.193Z,-7.03
2023-02-09T07:39:13.429Z,-6.96
2023-02-09T07:40:15.723Z,-6.89
2023-02-09T07:41:21.781Z,-6.79
2023-02-09T07:42:23.671Z,-6.70
2023-02-09T07:43:32.119Z,-6.59
2023-02-09T07:44:34.034Z,-6.49
2023-02-09T07:45:35.898Z,-6.40
2023-02-09T07:46:38.038Z,-6.33
2023-02-09T07:47:39.975Z,-6.26
2023-02-09T07:48:41.991Z,-6.18
2023-02-09T07:49:43.914Z,-6.11
2023-02-09T07:50:50.126Z,-6.03
2023-02-09T07:51:52.116Z,-5.97
2023-02-09T07:52:55.154Z,-5.91
2023-02-09T07:53:59.551Z,-5.85
2023-02-09T07:55:01.564Z,-5.79
2023-02-09T07:56:06.077Z,-5.74
2023-02-09T07:57:07.911Z,-5.66
2023-02-09T07:58:10.012Z,-5.59
2023-02-09T07:59:11.821Z,-5.53
2023-02-09T08:00:14.818Z,-5.49
2023-02-09T08:01:20.983Z,-5.46
2023-02-09T08:02:35.668Z,-5.45
2023-02-09T08:03:40.009Z,-5.40
2023-02-09T08:04:43.710Z,-5.34
2023-02-09T08:06:08.697Z,-5.27
2023-02-09T08:07:10.529Z,-5.20
2023-02-09T08:08:12.330Z,-5.15
2023-02-09T08:09:16.836Z,-5.09
2023-02-09T08:10:19.771Z,-5.07
2023-02-09T08:11:29.188Z,-5.06
2023-02-09T08:12:51.186Z,-5.05
2023-02-09T08:13:56.819Z,-5.01
2023-02-09T08:14:58.750Z,-4.98
2023-02-09T08:16:05.073Z,-4.95
2023-02-09T08:17:24.458Z,-4.92
2023-02-09T08:18:37.989Z,-4.88
2023-02-09T08:19:39.912Z,-4.84
2023-02-09T08:20:45.030Z,-4.81
2023-02-09T08:21:49.590Z,-4.79
2023-02-09T08:22:56.093Z,-4.77
2023-02-09T08:24:00.192Z,-4.76
2023-02-09T08:25:04.144Z,-4.75
2023-02-09T08:26:11.461Z,-4.71
2023-02-09T08:27:13.517Z,-4.70
2023-02-09T08:28:16.068Z,-4.69
2023-02-09T08:29:18.049Z,-4.68
2023-02-09T08:30:21.115Z,-4.67
2023-02-09T08:31:23.540Z,-4.65
2023-02-09T08:32:25.646Z,-4.61
2023-02-09T08:33:27.461Z,-4.61
2023-02-09T08:34:29.264Z,-4.61
2023-02-09T08:35:31.782Z,-4.60
2023-02-09T08:36:34.535Z,-4.62
2023-02-09T08:37:36.365Z,-4.62
2023-02-09T08:38:38.813Z,-4.61
2023-02-09T08:39:40.754Z,-4.59
2023-02-09T08:40:44.197Z,-4.55
2023-02-09T08:41:46.469Z,-4.53
2023-02-09T08:42:48.472Z,-4.52
2023-02-09T08:43:51.771Z,-4.51
2023-02-09T08:44:53.546Z,-4.47
2023-02-09T08:45:55.612Z,-4.42
2023-02-09T08:46:57.910Z,-4.36
2023-02-09T08:48:00.095Z,-4.31
2023-02-09T08:49:02.400Z,-4.29
2023-02-09T08:50:05.190Z,-4.26
2023-02-09T08:51:09.457Z,-4.25
2023-02-09T08:52:11.329Z,-4.25
2023-02-09T08:53:13.226Z,-4.25
2023-02-09T08:54:16.012Z,-4.23
2023-02-09T08:55:17.845Z,-4.21
2023-02-09T08:56:56.197Z,-4.16
2023-02-09T08:57:56.760Z,-4.17
2023-02-09T08:58:57.325Z,-4.14
2023-02-09T08:59:58.141Z,-4.11
2023-02-09T09:01:00.039Z,-4.11
2023-02-09T09:02:00.591Z,-4.11
2023-02-09T09:03:05.079Z,-4.11
2023-02-09T09:04:06.880Z,-4.10
2023-02-09T09:05:08.185Z,-4.07
2023-02-09T09:06:10.986Z,-4.05
2023-02-09T09:07:11.444Z,-3.99
2023-02-09T09:08:11.951Z,-3.95
2023-02-09T09:09:12.993Z,-3.94
2023-02-09T09:10:13.409Z,-3.93
2023-02-09T09:11:14.197Z,-3.91
2023-02-09T09:12:14.716Z,-3.91
2023-02-09T09:13:15.343Z,-3.90
2023-02-09T09:14:16.002Z,-3.87
2023-02-09T09:15:16.735Z,-3.84
2023-02-09T09:16:20.846Z,-3.83
2023-02-09T09:17:21.743Z,-3.80
2023-02-09T09:18:24.312Z,-3.77
2023-02-09T09:19:25.435Z,-3.72
2023-02-09T09:20:26.170Z,-3.69
2023-02-09T09:21:26.726Z,-3.65
2023-02-09T09:22:27.277Z,-3.60
2023-02-09T09:23:28.149Z,-3.57
2023-02-09T09:24:30.196Z,-3.54
2023-02-09T09:25:30.676Z,-3.54
2023-02-09T09:26:32.921Z,-3.53
2023-02-09T09:27:34.542Z,-3.51
2023-02-09T09:28:35.831Z,-3.48
2023-02-09T09:29:39.492Z,-3.43
2023-02-09T09:30:40.007Z,-3.39
2023-02-09T09:31:41.297Z,-3.34
2023-02-09T09:32:42.027Z,-3.31
2023-02-09T09:33:44.070Z,-3.28
2023-02-09T09:34:44.552Z,-3.22
2023-02-09T09:35:45.360Z,-3.17
2023-02-09T09:36:46.069Z,-3.14
2023-02-09T09:37:47.982Z,-3.10
2023-02-09T09:38:48.721Z,-3.05
2023-02-09T09:39:49.838Z,-2.99
2023-02-09T09:40:50.326Z,-2.92
2023-02-09T09:41:58.726Z,-2.86
2023-02-09T09:43:05.417Z,-2.78
2023-02-09T09:44:28.837Z,-2.71
2023-02-09T09:45:34.659Z,-2.63
2023-02-09T09:46:41.251Z,-2.56
2023-02-09T09:47:44.198Z,-2.49
2023-02-09T09:48:52.457Z,-2.42
2023-02-09T09:49:53.336Z,-2.35
2023-02-09T09:51:01.724Z,-2.30
2023-02-09T09:52:14.746Z,-2.24
2023-02-09T09:53:34.585Z,-2.18
2023-02-09T09:54:36.997Z,-2.14
2023-02-09T09:55:38.493Z,-2.12
2023-02-09T09:56:40.507Z,-2.11
2023-02-09T09:57:45.338Z,-2.08
2023-02-09T09:58:48.608Z,-2.06
2023-02-09T09:59:49.068Z,-2.01
2023-02-09T10:00:49.968Z,-1.98
2023-02-09T10:01:52.987Z,-1.96
2023-02-09T10:02:53.885Z,-1.94
2023-02-09T10:04:01.419Z,-1.91
2023-02-09T10:05:26.585Z,-1.87
2023-02-09T10:06:33.198Z,-1.80
2023-02-09T10:07:34.280Z,-1.75
2023-02-09T10:08:42.215Z,-1.69
2023-02-09T10:09:55.621Z,-1.65
2023-02-09T10:10:56.045Z,-1.60
2023-02-09T10:12:15.750Z,-1.54
2023-02-09T10:13:39.770Z,-1.47
2023-02-09T10:14:40.387Z,-1.41
2023-02-09T10:15:41.003Z,-1.36
2023-02-09T10:16:43.832Z,-1.30
2023-02-09T10:17:44.438Z,-1.23
2023-02-09T10:18:52.614Z,-1.16
2023-02-09T10:20:39.006Z,-1.09
2023-02-09T10:21:39.485Z,-1.02
2023-02-09T10:22:45.040Z,-0.97
2023-02-09T10:24:01.966Z,-0.90
2023-02-09T10:25:23.680Z,-0.82
2023-02-09T10:26:30.349Z,-0.71
2023-02-09T10:27:30.786Z,-0.64
2023-02-09T10:28:37.471Z,-0.59
2023-02-09T10:29:38.072Z,-0.56
2023-02-09T10:30:38.542Z,-0.54
2023-02-09T10:31:46.902Z,-0.53
2023-02-09T10:32:47.909Z,-0.50
2023-02-09T10:33:55.793Z,-0.46
2023-02-09T10:34:57.265Z,-0.41
2023-02-09T10:36:06.326Z,-0.36
2023-02-09T10:37:19.300Z,-0.28
2023-02-09T10:38:24.016Z,-0.20
2023-02-09T10:39:32.194Z,-0.15
2023-02-09T10:40:38.565Z,-0.10
2023-02-09T10:41:43.133Z,-0.08
2023-02-09T10:43:06.386Z,-0.05
2023-02-09T10:44:21.999Z,0.00
2023-02-09T10:45:38.583Z,0.04
2023-02-09T10:46:39.989Z,0.11
2023-02-09T10:47:40.897Z,0.14
2023-02-09T10:48:44.361Z,0.18
2023-02-09T10:50:11.013Z,0.23
2023-02-09T10:51:28.235Z,0.30
2023-02-09T10:52:37.800Z,0.38
2023-02-09T10:54:00.698Z,0.49
2023-02-09T10:55:21.569Z,0.59
2023-02-09T10:56:26.475Z,0.66
2023-02-09T10:57:38.276Z,0.72
2023-02-09T10:58:38.932Z,0.80
2023-02-09T10:59:40.731Z,0.88
2023-02-09T11:00:41.271Z,1.00
2023-02-09T11:01:44.387Z,1.13
2023-02-09T11:02:54.484Z,1.31
2023-02-09T11:04:03.561Z,1.44
2023-02-09T11:05:29.615Z,1.58
2023-02-09T11:06:51.545Z,1.72
2023-02-09T11:08:22.353Z,1.79
2023-02-09T11:09:34.550Z,1.98
2023-02-09T11:10:43.007Z,2.10
2023-02-09T11:11:44.804Z,2.21
2023-02-09T11:12:46.248Z,2.26
2023-02-09T11:13:46.833Z,2.31
2023-02-09T11:14:48.403Z,2.37
2023-02-09T11:16:22.128Z,2.45
2023-02-09T11:17:36.119Z,2.52
2023-02-09T11:18:41.969Z,2.59
2023-02-09T11:20:01.112Z,2.68
2023-02-09T11:21:33.192Z,2.78
2023-02-09T11:22:53.349Z,2.96
2023-02-09T11:23:56.581Z,3.05
2023-02-09T11:25:15.208Z,3.15
2023-02-09T11:26:50.248Z,3.27
2023-02-09T11:28:16.432Z,3.35
2023-02-09T11:29:29.368Z,3.43
2023-02-09T11:30:38.581Z,3.50
2023-02-09T11:31:57.959Z,3.57
2023-02-09T11:33:33.446Z,3.62
2023-02-09T11:34:58.669Z,3.53
2023-02-09T11:36:36.987Z,3.51
2023-02-09T11:37:43.597Z,3.57
2023-02-09T11:38:54.250Z,3.60
2023-02-09T11:40:03.898Z,3.67
2023-02-09T11:41:31.575Z,3.74
2023-02-09T11:42:45.136Z,3.80
2023-02-09T11:43:50.858Z,3.78
2023-02-09T11:44:54.755Z,3.72
2023-02-09T11:46:05.115Z,3.82
2023-02-09T11:47:10.832Z,4.02
2023-02-09T11:48:22.303Z,4.20
2023-02-09T11:49:28.809Z,4.37
2023-02-09T11:50:57.297Z,4.44
2023-02-09T11:52:00.077Z,4.42
2023-02-09T11:53:17.558Z,4.40
2023-02-09T11:54:29.450Z,4.43
2023-02-09T11:55:41.125Z,4.47
2023-02-09T11:56:49.767Z,4.57
2023-02-09T11:58:05.478Z,4.62
2023-02-09T11:59:30.437Z,4.60
2023-02-09T12:00:54.475Z,4.67
2023-02-09T12:02:22.745Z,4.81
2023-02-09T12:03:24.520Z,4.93
2023-02-09T12:04:53.816Z,5.00
2023-02-09T12:05:56.308Z,5.04
2023-02-09T12:07:19.540Z,4.96
2023-02-09T12:08:46.599Z,4.90
2023-02-09T12:10:38.939Z,4.98
2023-02-09T12:12:06.251Z,4.98
2023-02-09T12:13:06.680Z,4.96
2023-02-09T12:14:38.170Z,4.98
2023-02-09T12:15:44.930Z,5.05
2023-02-09T12:17:05.295Z,5.16
2023-02-09T12:18:14.274Z,5.25
2023-02-09T12:19:27.568Z,5.38
2023-02-09T12:20:28.519Z,5.51
2023-02-09T12:21:37.579Z,5.63
2023-02-09T12:22:57.516Z,5.67
2023-02-09T12:23:59.987Z,5.69
2023-02-09T12:25:42.134Z,5.72
2023-02-09T12:26:53.098Z,5.66
2023-02-09T12:28:13.937Z,5.65
2023-02-09T12:29:23.619Z,5.76
2023-02-09T12:30:39.354Z,5.90
2023-02-09T12:32:03.163Z,6.17
2023-02-09T12:33:21.833Z,6.37
2023-02-09T12:34:37.321Z,6.55
2023-02-09T12:35:40.746Z,6.59
2023-02-09T12:37:09.080Z,6.64
2023-02-09T12:38:16.311Z,6.69
2023-02-09T12:39:24.434Z,6.84
2023-02-09T12:40:36.185Z,6.93
2023-02-09T12:41:42.224Z,6.93
2023-02-09T12:42:45.917Z,6.94
2023-02-09T12:43:47.256Z,6.99
2023-02-09T12:44:56.798Z,7.05
2023-02-09T12:46:14.817Z,7.05
2023-02-09T12:47:41.575Z,7.04
2023-02-09T12:49:00.265Z,7.10
2023-02-09T12:50:18.662Z,7.19
2023-02-09T12:51:49.947Z,7.33
2023-02-09T12:53:21.455Z,7.42
2023-02-09T12:54:43.578Z,7.43
2023-02-09T12:56:09.002Z,7.33
2023-02-09T12:57:15.503Z,7.24
2023-02-09T12:58:44.432Z,7.23
2023-02-09T12:59:51.032Z,7.30
2023-02-09T13:00:54.580Z,7.37
2023-02-09T13:02:07.420Z,7.43
2023-02-09T13:03:13.731Z,7.49
2023-02-09T13:04:15.550Z,7.53
2023-02-09T13:05:16.002Z,7.62
2023-02-09T13:06:45.230Z,7.66
2023-02-09T13:08:10.346Z,7.63
2023-02-09T13:09:21.975Z,7.72
2023-02-09T13:10:37.154Z,7.81
2023-02-09T13:11:53.030Z,7.89
2023-02-09T13:13:03.052Z,7.94
2023-02-09T13:14:08.947Z,7.96
2023-02-09T13:15:15.847Z,7.94
2023-02-09T13:16:22.403Z,7.93
2023-02-09T13:17:50.124Z,7.91
2023-02-09T13:19:09.364Z,7.82
2023-02-09T13:20:31.687Z,7.68
2023-02-09T13:21:52.209Z,7.67
2023-02-09T13:23:13.070Z,7.73
2023-02-09T13:24:22.120Z,7.77
2023-02-09T13:25:36.694Z,7.77
2023-02-09T13:26:48.052Z,7.69
2023-02-09T13:27:49.740Z,7.62
2023-02-09T13:29:20.309Z,7.59
2023-02-09T13:30:31.603Z,7.53
2023-02-09T13:31:39.479Z,7.50
2023-02-09T13:32:55.298Z,7.56
2023-02-09T13:34:07.155Z,7.64
2023-02-09T13:35:41.699Z,7.68
2023-02-09T13:36:58.502Z,7.68
2023-02-09T13:38:07.292Z,7.67
2023-02-09T13:39:19.716Z,7.57
2023-02-09T13:40:32.896Z,7.55
2023-02-09T13:41:40.043Z,7.57
2023-02-09T13:42:58.365Z,7.66
2023-02-09T13:43:59.100Z,7.68
2023-02-09T13:44:59.596Z,7.71
2023-02-09T13:46:01.676Z,7.74
2023-02-09T13:47:07.120Z,7.77
2023-02-09T13:48:23.083Z,7.84
2023-02-09T13:49:27.338Z,7.92
2023-02-09T13:50:28.619Z,7.97
2023-02-09T13:51:29.056Z,8.04
2023-02-09T13:52:36.926Z,8.00
2023-02-09T13:53:39.340Z,7.88
2023-02-09T13:54:41.909Z,7.74
2023-02-09T13:55:47.435Z,7.69
2023-02-09T13:56:48.595Z,7.67
2023-02-09T13:57:58.193Z,7.55
2023-02-09T13:59:00.151Z,7.39
2023-02-09T14:00:15.428Z,7.24
2023-02-09T14:01:33.122Z,7.16
2023-02-09T14:02:36.277Z,7.14
2023-02-09T14:03:57.813Z,7.12
2023-02-09T14:05:04.890Z,7.15
2023-02-09T14:06:19.649Z,7.22
2023-02-09T14:07:28.078Z,7.28
2023-02-09T14:08:31.579Z,7.32
2023-02-09T14:09:49.813Z,7.35
2023-02-09T14:11:05.526Z,7.42
2023-02-09T14:12:17.577Z,7.46
2023-02-09T14:13:35.118Z,7.52
2023-02-09T14:15:23.315Z,7.54
2023-02-09T14:16:27.518Z,7.56
2023-02-09T14:17:31.885Z,7.59
2023-02-09T14:18:53.939Z,7.64
2023-02-09T14:19:57.444Z,7.66
2023-02-09T14:21:15.225Z,7.57
2023-02-09T14:22:37.299Z,7.40
2023-02-09T14:23:39.163Z,7.24
2023-02-09T14:24:43.450Z,7.14
2023-02-09T14:26:00.244Z,7.02
2023-02-09T14:27:16.034Z,6.91
2023-02-09T14:28:17.115Z,6.86
2023-02-09T14:29:24.830Z,6.77
2023-02-09T14:30:31.277Z,6.68
2023-02-09T14:31:34.817Z,6.59
2023-02-09T14:32:47.579Z,6.53